Time;durP1;ratioP1;P1;durP2;ratioP2;P2;SDS_P1;SDS_P2;PMS_P1;PMS_P2;Temp;Humidity;BMP_temperature;BMP_pressure;BME280_temperature;BME280_humidity;BME280_pressure;Samples;Min_cycle;Max_cycle;Signal;HPM_P1;HPM_P2
2021/08/13 00:01:47;;;;;;;15.82;9.35;;;;;;;;;;4969420;28;20026;-51
2021/08/13 00:04:14;;;;;;;13.98;8.10;;;;;;;;;;4969384;28;20026;-51
2021/08/13 00:06:41;;;;;;;16.38;8.13;;;;;;;;;;4969390;28;20026;-52
2021/08/13 00:09:12;;;;;;;15.77;7.90;;;;;;;;;;4969652;28;21079;-51
2021/08/13 00:11:39;;;;;;;13.63;7.40;;;;;;;;;;4969540;28;20556;-53
2021/08/13 00:14:08;;;;;;;19.73;8.40;;;;;;;;;;4969921;28;20049;-53
2021/08/13 00:16:35;;;;;;;15.00;7.53;;;;;;;;;;4969832;28;20033;-50
2021/08/13 00:19:01;;;;;;;18.67;9.13;;;;;;;;;;4969519;28;20109;-53
2021/08/13 00:21:27;;;;;;;23.48;12.23;;;;;;;;;;4969377;28;20179;-51
2021/08/13 00:23:53;;;;;;;43.92;25.23;;;;;;;;;;4969350;28;20042;-51
2021/08/13 00:26:19;;;;;;;36.20;21.17;;;;;;;;;;4969216;28;20034;-53
2021/08/13 00:28:45;;;;;;;21.02;11.32;;;;;;;;;;4969629;28;20477;-54
2021/08/13 00:31:12;;;;;;;20.42;8.82;;;;;;;;;;4961350;28;20033;-52
2021/08/13 00:33:38;;;;;;;17.13;8.10;;;;;;;;;;4969690;28;20029;-55
2021/08/13 00:36:04;;;;;;;20.60;8.93;;;;;;;;;;4969331;28;20026;-53
2021/08/13 00:38:30;;;;;;;13.60;7.45;;;;;;;;;;4969084;28;20145;-54
2021/08/13 00:40:56;;;;;;;16.60;7.82;;;;;;;;;;4969267;28;20230;-55
2021/08/13 00:43:22;;;;;;;12.73;7.53;;;;;;;;;;4969688;28;20113;-57
2021/08/13 00:45:49;;;;;;;18.67;8.05;;;;;;;;;;4969176;28;20031;-53
2021/08/13 00:48:15;;;;;;;16.27;8.57;;;;;;;;;;4969327;28;20026;-54
2021/08/13 00:50:41;;;;;;;17.63;7.70;;;;;;;;;;4969521;28;20022;-53
2021/08/13 00:53:08;;;;;;;14.15;7.28;;;;;;;;;;4969422;28;20026;-58
2021/08/13 00:55:39;;;;;;;13.30;6.80;;;;;;;;;;4969287;28;20026;-55
2021/08/13 00:58:06;;;;;;;16.23;7.80;;;;;;;;;;4969301;28;20360;-57
2021/08/13 01:00:33;;;;;;;15.88;7.10;;;;;;;;;;4968477;28;20373;-53
2021/08/13 01:02:59;;;;;;;16.67;8.48;;;;;;;;;;4969379;28;20109;-50
2021/08/13 01:05:25;;;;;;;12.38;7.22;;;;;;;;;;4960833;28;20094;-53
2021/08/13 01:07:51;;;;;;;15.95;6.72;;;;;;;;;;4969438;28;20026;-55
2021/08/13 01:10:17;;;;;;;13.70;6.70;;;;;;;;;;4968696;28;20058;-52
2021/08/13 01:12:51;;;;;;;12.18;6.97;;;;;;;;;;4997955;28;20026;-57
2021/08/13 01:15:20;;;;;;;11.02;6.28;;;;;;;;;;5016675;28;20029;-57
2021/08/13 01:17:50;;;;;;;12.98;6.50;;;;;;;;;;5016593;28;20014;-57
2021/08/13 01:20:22;;;;;;;9.25;5.97;;;;;;;;;;5016503;28;20097;-57
2021/08/13 01:22:52;;;;;;;11.13;6.10;;;;;;;;;;5016595;28;20112;-58
2021/08/13 01:25:21;;;;;;;12.68;6.18;;;;;;;;;;5016464;28;20072;-56
2021/08/13 01:27:51;;;;;;;7.97;5.65;;;;;;;;;;5016325;28;20467;-53
2021/08/13 01:30:19;;;;;;;12.63;6.63;;;;;;;;;;5016478;28;20098;-51
2021/08/13 01:32:51;;;;;;;15.43;7.75;;;;;;;;;;5016411;28;20244;-52
2021/08/13 01:35:28;;;;;;;12.60;7.40;;;;;;;;;;5016305;28;20026;-53
2021/08/13 01:37:55;;;;;;;15.40;6.47;;;;;;;;;;5016151;28;20474;-51
2021/08/13 01:40:24;;;;;;;16.95;9.25;;;;;;;;;;5015915;28;20445;-52
2021/08/13 01:42:52;;;;;;;15.43;7.85;;;;;;;;;;5016066;28;20028;-54
2021/08/13 01:45:20;;;;;;;14.57;8.65;;;;;;;;;;5016150;28;20037;-55
2021/08/13 01:47:46;;;;;;;15.90;11.25;;;;;;;;;;5016079;28;20522;-57
2021/08/13 01:50:13;;;;;;;13.75;9.60;;;;;;;;;;5016068;28;20053;-56
2021/08/13 01:52:40;;;;;;;11.75;6.90;;;;;;;;;;5015947;28;20478;-58
2021/08/13 01:55:06;;;;;;;11.55;7.68;;;;;;;;;;5015935;28;20089;-56
2021/08/13 01:57:32;;;;;;;11.07;5.80;;;;;;;;;;5015844;28;20026;-53
2021/08/13 01:59:59;;;;;;;12.50;6.00;;;;;;;;;;5015779;28;20042;-55
2021/08/13 02:02:25;;;;;;;10.45;6.15;;;;;;;;;;5015758;28;20046;-54
2021/08/13 02:04:52;;;;;;;9.52;5.95;;;;;;;;;;5015809;28;20109;-53
2021/08/13 02:07:20;;;;;;;10.50;6.75;;;;;;;;;;5015695;28;20026;-52
2021/08/13 02:09:48;;;;;;;12.05;6.72;;;;;;;;;;5015440;28;20057;-55
2021/08/13 02:12:14;;;;;;;13.27;7.25;;;;;;;;;;5015705;28;20028;-55
2021/08/13 02:14:43;;;;;;;9.80;6.00;;;;;;;;;;5015611;28;20029;-57
2021/08/13 02:17:13;;;;;;;8.75;6.00;;;;;;;;;;5015601;28;20072;-57
2021/08/13 02:19:52;;;;;;;13.27;5.60;;;;;;;;;;5015431;28;20069;-55
2021/08/13 02:22:18;;;;;;;11.73;6.45;;;;;;;;;;5015251;28;20050;-54
2021/08/13 02:24:44;;;;;;;12.38;6.18;;;;;;;;;;5015561;28;20069;-53
2021/08/13 02:27:10;;;;;;;9.13;5.90;;;;;;;;;;5015502;28;20030;-54
2021/08/13 02:29:36;;;;;;;9.93;5.85;;;;;;;;;;5015627;28;20097;-55
2021/08/13 02:32:02;;;;;;;10.77;5.78;;;;;;;;;;5015239;28;20029;-54
2021/08/13 02:34:28;;;;;;;8.32;5.55;;;;;;;;;;5015237;28;20069;-55
2021/08/13 02:36:57;;;;;;;10.45;6.15;;;;;;;;;;5015587;28;20030;-55
2021/08/13 02:39:27;;;;;;;9.27;6.07;;;;;;;;;;5013635;28;20069;-54
2021/08/13 02:41:55;;;;;;;9.50;6.20;;;;;;;;;;5015106;28;20109;-54
2021/08/13 02:44:22;;;;;;;13.00;6.10;;;;;;;;;;5015098;28;20022;-54
2021/08/13 02:47:00;;;;;;;9.57;6.55;;;;;;;;;;5015133;28;20026;-55
2021/08/13 02:49:28;;;;;;;15.93;7.65;;;;;;;;;;5014901;28;20037;-55
2021/08/13 02:51:55;;;;;;;11.32;6.70;;;;;;;;;;5015033;28;20051;-54
2021/08/13 02:54:24;;;;;;;13.60;7.72;;;;;;;;;;5015098;28;20393;-56
2021/08/13 02:56:52;;;;;;;12.70;7.20;;;;;;;;;;5015016;28;20052;-55
2021/08/13 02:59:19;;;;;;;10.98;7.60;;;;;;;;;;5014864;28;20021;-55
2021/08/13 03:01:46;;;;;;;14.20;8.15;;;;;;;;;;5013740;28;20402;-56
2021/08/13 03:04:13;;;;;;;10.60;7.15;;;;;;;;;;5014685;28;20099;-56
2021/08/13 03:06:42;;;;;;;11.45;7.10;;;;;;;;;;5014845;28;20113;-56
2021/08/13 03:09:08;;;;;;;15.65;7.68;;;;;;;;;;5014482;28;20056;-54
2021/08/13 03:11:35;;;;;;;10.55;7.60;;;;;;;;;;5014586;28;20021;-55
2021/08/13 03:14:04;;;;;;;12.90;8.02;;;;;;;;;;5014643;28;20072;-55
2021/08/13 03:16:32;;;;;;;13.82;7.53;;;;;;;;;;5014433;28;20029;-56
2021/08/13 03:18:58;;;;;;;14.80;7.13;;;;;;;;;;5014682;28;20434;-55
2021/08/13 03:21:25;;;;;;;16.33;6.80;;;;;;;;;;5014297;28;20482;-56
2021/08/13 03:23:53;;;;;;;10.30;6.75;;;;;;;;;;5014394;28;20022;-57
2021/08/13 03:26:19;;;;;;;12.55;6.97;;;;;;;;;;5014414;28;20437;-54
2021/08/13 03:28:47;;;;;;;12.82;7.30;;;;;;;;;;5014350;28;20022;-55
2021/08/13 03:31:45;;;;;;;9.65;6.47;;;;;;;;;;5014209;28;20505;-55
2021/08/13 03:34:11;;;;;;;13.17;7.40;;;;;;;;;;4972535;28;20083;-54
2021/08/13 03:36:38;;;;;;;11.45;6.88;;;;;;;;;;4973038;28;20062;-53
2021/08/13 03:39:06;;;;;;;12.57;6.40;;;;;;;;;;4972960;28;20035;-54
2021/08/13 03:41:32;;;;;;;13.50;6.50;;;;;;;;;;4972870;28;20097;-54
2021/08/13 03:43:58;;;;;;;12.88;7.07;;;;;;;;;;4972813;28;20031;-52
2021/08/13 03:46:24;;;;;;;9.80;6.80;;;;;;;;;;4973153;28;20499;-53
2021/08/13 03:48:50;;;;;;;9.75;6.60;;;;;;;;;;4972939;28;20031;-56
2021/08/13 03:51:16;;;;;;;11.80;7.10;;;;;;;;;;4973083;28;20062;-54
2021/08/13 03:53:42;;;;;;;13.48;6.72;;;;;;;;;;4972914;28;20502;-54
2021/08/13 03:56:08;;;;;;;12.02;6.43;;;;;;;;;;4972852;28;20031;-53
2021/08/13 03:58:34;;;;;;;13.40;6.60;;;;;;;;;;4972604;28;20027;-51
2021/08/13 04:01:00;;;;;;;12.45;6.80;;;;;;;;;;4972620;28;20039;-53
2021/08/13 04:03:26;;;;;;;10.38;6.32;;;;;;;;;;4972830;28;20101;-54
2021/08/13 04:05:52;;;;;;;11.00;6.75;;;;;;;;;;4972693;28;20073;-53
2021/08/13 04:08:18;;;;;;;10.90;5.55;;;;;;;;;;4972367;28;20096;-52
2021/08/13 04:10:45;;;;;;;10.75;6.22;;;;;;;;;;5010263;28;20122;-53
2021/08/13 04:13:11;;;;;;;12.00;6.28;;;;;;;;;;5013644;28;20041;-54
2021/08/13 04:15:39;;;;;;;11.93;6.22;;;;;;;;;;5013612;28;20033;-55
2021/08/13 04:18:05;;;;;;;10.07;5.85;;;;;;;;;;5013568;28;20088;-54
2021/08/13 04:20:31;;;;;;;16.15;6.45;;;;;;;;;;5013422;28;20084;-54
2021/08/13 04:22:58;;;;;;;8.55;5.82;;;;;;;;;;5013870;28;20485;-55
2021/08/13 04:25:24;;;;;;;11.70;6.05;;;;;;;;;;5013439;28;20041;-54
2021/08/13 04:27:50;;;;;;;10.70;6.20;;;;;;;;;;5013297;28;20549;-54
2021/08/13 04:30:16;;;;;;;14.77;6.25;;;;;;;;;;5013548;28;20030;-55
2021/08/13 04:32:42;;;;;;;7.90;5.70;;;;;;;;;;5013349;28;20058;-52
2021/08/13 04:35:08;;;;;;;15.20;6.55;;;;;;;;;;5013364;28;20022;-53
2021/08/13 04:37:35;;;;;;;9.50;5.70;;;;;;;;;;5013487;28;20517;-54
2021/08/13 04:40:03;;;;;;;17.85;5.90;;;;;;;;;;5013171;28;20046;-53
2021/08/13 04:42:29;;;;;;;11.60;6.82;;;;;;;;;;5013496;28;20032;-54
2021/08/13 04:44:55;;;;;;;10.70;5.93;;;;;;;;;;5013381;28;20022;-54
2021/08/13 04:47:21;;;;;;;15.45;7.78;;;;;;;;;;5017337;28;20029;-55
2021/08/13 04:49:47;;;;;;;10.65;6.28;;;;;;;;;;5017374;28;20113;-55
2021/08/13 04:52:14;;;;;;;13.10;6.43;;;;;;;;;;5017266;28;20478;-55
2021/08/13 04:54:40;;;;;;;11.20;5.97;;;;;;;;;;5017189;28;20026;-55
2021/08/13 04:57:06;;;;;;;13.65;5.72;;;;;;;;;;5017123;28;20022;-54
2021/08/13 04:59:34;;;;;;;10.50;6.30;;;;;;;;;;5017011;28;20030;-55
2021/08/13 05:02:00;;;;;;;12.90;5.88;;;;;;;;;;5017013;28;20026;-54
2021/08/13 05:04:28;;;;;;;9.57;6.13;;;;;;;;;;5017084;28;20018;-55
2021/08/13 05:06:54;;;;;;;7.63;5.47;;;;;;;;;;5016890;28;20057;-56
2021/08/13 05:09:23;;;;;;;8.00;5.57;;;;;;;;;;5016598;28;20053;-51
2021/08/13 05:11:49;;;;;;;11.57;5.82;;;;;;;;;;5017093;28;20030;-53
2021/08/13 05:14:15;;;;;;;11.60;5.22;;;;;;;;;;5016732;28;20029;-52
2021/08/13 05:16:41;;;;;;;10.57;4.50;;;;;;;;;;5016692;28;20034;-51
2021/08/13 05:19:09;;;;;;;9.75;4.35;;;;;;;;;;5016748;28;20041;-51
2021/08/13 05:21:41;;;;;;;8.80;5.20;;;;;;;;;;5016545;28;20506;-52
2021/08/13 05:24:07;;;;;;;12.30;4.45;;;;;;;;;;5016883;28;20080;-53
2021/08/13 05:26:34;;;;;;;9.43;4.22;;;;;;;;;;5016488;28;20025;-52
2021/08/13 05:29:00;;;;;;;9.27;7.47;;;;;;;;;;5016321;28;20463;-52
2021/08/13 05:31:26;;;;;;;10.05;4.28;;;;;;;;;;5016482;28;20069;-52
2021/08/13 05:33:56;;;;;;;12.80;4.75;;;;;;;;;;5016610;28;20026;-52
2021/08/13 05:36:22;;;;;;;;;;;;;;;;;;5017066;28;20038;-53
2021/08/13 05:38:48;;;;;;;13.20;4.78;;;;;;;;;;5016105;28;19921;-51
2021/08/13 05:41:14;;;;;;;13.13;4.68;;;;;;;;;;5016166;28;20073;-54
2021/08/13 05:43:40;;;;;;;10.10;5.40;;;;;;;;;;5016103;28;20026;-54
2021/08/13 05:46:06;;;;;;;7.03;4.30;;;;;;;;;;5016052;28;20057;-53
2021/08/13 05:48:32;;;;;;;6.38;4.40;;;;;;;;;;5016106;28;20101;-52
2021/08/13 05:50:59;;;;;;;8.48;4.03;;;;;;;;;;5016034;28;20097;-52
2021/08/13 05:53:25;;;;;;;7.43;4.40;;;;;;;;;;5014979;28;20432;-52
2021/08/13 05:55:51;;;;;;;10.55;3.72;;;;;;;;;;5016111;28;20026;-53
2021/08/13 05:58:17;;;;;;;5.88;3.53;;;;;;;;;;5013736;28;20053;-52
2021/08/13 06:00:43;;;;;;;6.30;4.10;;;;;;;;;;5016002;28;20390;-52
2021/08/13 06:03:09;;;;;;;8.27;4.20;;;;;;;;;;5015843;28;20026;-52
2021/08/13 06:05:35;;;;;;;7.78;3.70;;;;;;;;;;5016009;28;20101;-53
2021/08/13 06:08:01;;;;;;;7.30;3.60;;;;;;;;;;5015466;28;20031;-51
2021/08/13 06:10:27;;;;;;;12.23;3.97;;;;;;;;;;5015506;28;20506;-53
2021/08/13 06:12:53;;;;;;;18.95;4.88;;;;;;;;;;5015601;28;20030;-51
2021/08/13 06:15:19;;;;;;;13.13;3.95;;;;;;;;;;5015554;28;20080;-55
2021/08/13 06:17:46;;;;;;;8.82;3.75;;;;;;;;;;5015479;28;20485;-52
2021/08/13 06:20:22;;;;;;;7.20;3.70;;;;;;;;;;5015602;28;20091;-52
2021/08/13 06:22:48;;;;;;;6.75;3.35;;;;;;;;;;5015497;28;20030;-52
2021/08/13 06:25:15;;;;;;;6.22;3.35;;;;;;;;;;5015379;28;20084;-51
2021/08/13 06:27:42;;;;;;;5.80;3.25;;;;;;;;;;5015165;28;20026;-52
2021/08/13 06:30:09;;;;;;;8.90;3.78;;;;;;;;;;5015369;28;20026;-51
2021/08/13 06:32:35;;;;;;;6.32;3.60;;;;;;;;;;5015704;28;20541;-52
2021/08/13 06:35:01;;;;;;;6.95;3.38;;;;;;;;;;5015394;28;20036;-49
2021/08/13 06:37:27;;;;;;;6.82;3.42;;;;;;;;;;5015215;28;20053;-53
2021/08/13 06:39:55;;;;;;;5.88;3.22;;;;;;;;;;5014893;28;20425;-52
2021/08/13 06:42:22;;;;;;;10.85;3.35;;;;;;;;;;5015247;28;20030;-52
2021/08/13 06:44:48;;;;;;;6.82;3.15;;;;;;;;;;5015565;28;20489;-52
2021/08/13 06:47:14;;;;;;;5.85;3.22;;;;;;;;;;5015198;28;20028;-52
2021/08/13 06:49:40;;;;;;;5.93;3.50;;;;;;;;;;5015085;28;20026;-52
2021/08/13 06:52:09;;;;;;;8.50;3.90;;;;;;;;;;5015110;28;20474;-51
2021/08/13 06:54:35;;;;;;;8.13;4.20;;;;;;;;;;5014889;28;20053;-52
2021/08/13 06:57:04;;;;;;;7.90;3.88;;;;;;;;;;5014788;28;20030;-51
2021/08/13 06:59:30;;;;;;;6.28;3.75;;;;;;;;;;5014782;28;20017;-50
2021/08/13 07:01:56;;;;;;;7.68;3.67;;;;;;;;;;5014913;28;20084;-52
2021/08/13 07:04:22;;;;;;;10.82;3.83;;;;;;;;;;5015066;28;20018;-50
2021/08/13 07:06:50;;;;;;;6.95;3.50;;;;;;;;;;5014790;28;20029;-52
2021/08/13 07:09:16;;;;;;;9.10;3.70;;;;;;;;;;5014530;28;20077;-52
2021/08/13 07:11:42;;;;;;;5.63;3.90;;;;;;;;;;5014527;28;20076;-50
2021/08/13 07:14:08;;;;;;;7.85;4.47;;;;;;;;;;5014488;28;20084;-53
2021/08/13 07:16:35;;;;;;;7.18;4.00;;;;;;;;;;5014754;28;20386;-49
2021/08/13 07:19:01;;;;;;;6.93;4.05;;;;;;;;;;5014655;28;20075;-52
2021/08/13 07:21:27;;;;;;;7.70;4.50;;;;;;;;;;5014395;28;20038;-52
2021/08/13 07:23:55;;;;;;;6.72;4.05;;;;;;;;;;5014471;28;20467;-49
2021/08/13 07:26:21;;;;;;;6.20;4.00;;;;;;;;;;5014500;28;20156;-53
2021/08/13 07:28:47;;;;;;;8.75;4.05;;;;;;;;;;5012886;28;20036;-51
2021/08/13 07:31:13;;;;;;;9.63;4.05;;;;;;;;;;5014491;28;20029;-52
2021/08/13 07:33:39;;;;;;;6.13;3.90;;;;;;;;;;5014275;28;20378;-51
2021/08/13 07:36:05;;;;;;;8.55;4.50;;;;;;;;;;5014255;28;20478;-52
2021/08/13 07:38:39;;;;;;;11.18;4.30;;;;;;;;;;5014267;28;20046;-53
2021/08/13 07:41:06;;;;;;;9.13;4.68;;;;;;;;;;5014048;28;20042;-51
2021/08/13 07:43:32;;;;;;;10.65;4.20;;;;;;;;;;5014280;28;20418;-53
2021/08/13 07:45:58;;;;;;;6.22;3.88;;;;;;;;;;5013992;28;20026;-54
2021/08/13 07:48:24;;;;;;;11.18;4.32;;;;;;;;;;5013971;28;20081;-53
2021/08/13 07:50:52;;;;;;;8.63;4.00;;;;;;;;;;5013693;28;20524;-48
2021/08/13 07:53:18;;;;;;;9.85;4.28;;;;;;;;;;4994159;28;20033;-51
2021/08/13 07:55:44;;;;;;;9.43;5.72;;;;;;;;;;4993592;28;20034;-53
2021/08/13 07:58:10;;;;;;;6.55;4.07;;;;;;;;;;4993458;28;20101;-55
2021/08/13 08:00:36;;;;;;;7.60;4.03;;;;;;;;;;4993550;28;20030;-54
2021/08/13 08:03:03;;;;;;;6.32;3.75;;;;;;;;;;4992180;28;20040;-54
2021/08/13 08:05:29;;;;;;;7.90;4.40;;;;;;;;;;4993669;28;20429;-55
2021/08/13 08:07:55;;;;;;;6.18;4.65;;;;;;;;;;4993571;28;20022;-54
2021/08/13 08:10:21;;;;;;;6.55;3.38;;;;;;;;;;4993105;28;20046;-54
2021/08/13 08:12:47;;;;;;;6.22;3.47;;;;;;;;;;4993238;28;20379;-53
2021/08/13 08:15:13;;;;;;;6.57;3.55;;;;;;;;;;4993464;28;20433;-49
2021/08/13 08:17:39;;;;;;;6.70;3.20;;;;;;;;;;4992877;28;20030;-54
2021/08/13 08:20:06;;;;;;;4.65;2.90;;;;;;;;;;4992864;28;20045;-53
2021/08/13 08:22:33;;;;;;;8.13;3.90;;;;;;;;;;4993321;28;20035;-55
2021/08/13 08:24:59;;;;;;;5.03;3.67;;;;;;;;;;4993399;28;20023;-52
2021/08/13 08:27:25;;;;;;;6.30;3.70;;;;;;;;;;4993224;28;20054;-55
2021/08/13 08:29:52;;;;;;;11.18;4.05;;;;;;;;;;4993257;28;20026;-54
2021/08/13 08:32:18;;;;;;;7.47;3.42;;;;;;;;;;4993375;28;20080;-55
2021/08/13 08:34:44;;;;;;;6.22;3.38;;;;;;;;;;4993252;28;20097;-53
2021/08/13 08:37:11;;;;;;;7.35;4.97;;;;;;;;;;4993385;28;20026;-51
2021/08/13 08:39:38;;;;;;;7.05;4.35;;;;;;;;;;4993204;28;20022;-54
2021/08/13 08:42:10;;;;;;;6.90;3.42;;;;;;;;;;4992918;28;20490;-52
2021/08/13 08:44:37;;;;;;;4.95;3.47;;;;;;;;;;4993481;28;20018;-53
2021/08/13 08:47:03;;;;;;;5.70;3.40;;;;;;;;;;4993193;28;20036;-52
2021/08/13 08:49:29;;;;;;;5.63;3.55;;;;;;;;;;4993209;28;20426;-54
2021/08/13 08:51:56;;;;;;;8.90;3.72;;;;;;;;;;4993352;28;20023;-49
2021/08/13 08:54:26;;;;;;;8.40;3.08;;;;;;;;;;4993572;28;20501;-54
2021/08/13 08:56:52;;;;;;;5.03;3.30;;;;;;;;;;4993452;28;20026;-53
2021/08/13 08:59:21;;;;;;;5.32;2.97;;;;;;;;;;4993593;28;20027;-56
2021/08/13 09:01:47;;;;;;;4.43;3.22;;;;;;;;;;4993015;28;20035;-59
2021/08/13 09:04:13;;;;;;;6.93;3.50;;;;;;;;;;4992948;28;20618;-54
2021/08/13 09:06:40;;;;;;;5.70;3.03;;;;;;;;;;4990414;28;20026;-53
2021/08/13 09:09:06;;;;;;;5.30;3.10;;;;;;;;;;4992809;28;20050;-54
2021/08/13 09:11:33;;;;;;;6.35;3.60;;;;;;;;;;4992737;28;20156;-53
2021/08/13 09:14:04;;;;;;;5.80;3.55;;;;;;;;;;4990104;28;20034;-52
2021/08/13 09:16:33;;;;;;;6.53;3.38;;;;;;;;;;4992760;28;20041;-53
2021/08/13 09:19:11;;;;;;;8.40;3.35;;;;;;;;;;4992897;28;20456;-54
2021/08/13 09:21:38;;;;;;;5.63;2.95;;;;;;;;;;4992688;28;20037;-54
2021/08/13 09:24:13;;;;;;;5.50;2.78;;;;;;;;;;4992775;28;20510;-54
2021/08/13 09:26:43;;;;;;;5.15;3.63;;;;;;;;;;4992638;28;20019;-55
2021/08/13 09:29:18;;;;;;;9.73;3.35;;;;;;;;;;4992741;28;20022;-54
2021/08/13 09:31:49;;;;;;;7.72;3.00;;;;;;;;;;4992702;28;20084;-55
2021/08/13 09:34:15;;;;;;;5.05;2.92;;;;;;;;;;4995973;28;20046;-55
2021/08/13 09:36:50;;;;;;;5.30;2.85;;;;;;;;;;4996086;28;20026;-55
2021/08/13 09:39:17;;;;;;;4.55;3.10;;;;;;;;;;4996111;28;20026;-55
2021/08/13 09:41:46;;;;;;;3.95;2.95;;;;;;;;;;4996000;28;20084;-48
2021/08/13 09:44:13;;;;;;;8.68;3.60;;;;;;;;;;4995935;28;20015;-54
2021/08/13 09:46:54;;;;;;;5.88;3.03;;;;;;;;;;4996012;28;20113;-54
2021/08/13 09:49:20;;;;;;;3.90;2.70;;;;;;;;;;4993121;28;20068;-56
2021/08/13 09:51:48;;;;;;;6.07;2.50;;;;;;;;;;4995655;28;20034;-51
2021/08/13 09:54:14;;;;;;;5.13;2.90;;;;;;;;;;4995918;28;20026;-55
2021/08/13 09:56:41;;;;;;;4.93;3.35;;;;;;;;;;4995753;28;20018;-53
2021/08/13 09:59:22;;;;;;;4.15;3.15;;;;;;;;;;4995972;28;20101;-52
2021/08/13 10:01:56;;;;;;;4.75;2.97;;;;;;;;;;4996054;28;20054;-54
2021/08/13 10:04:36;;;;;;;5.78;3.35;;;;;;;;;;4996127;28;20038;-55
2021/08/13 10:07:02;;;;;;;4.55;3.08;;;;;;;;;;4996237;28;20030;-57
2021/08/13 10:09:29;;;;;;;4.78;3.10;;;;;;;;;;4994455;28;20510;-59
2021/08/13 10:12:05;;;;;;;6.95;3.10;;;;;;;;;;4995555;28;20018;-57
2021/08/13 10:14:32;;;;;;;7.70;3.00;;;;;;;;;;4995740;28;20057;-58
2021/08/13 10:17:08;;;;;;;5.30;3.03;;;;;;;;;;4996095;28;20022;-48
2021/08/13 10:19:34;;;;;;;9.60;6.53;;;;;;;;;;4995723;28;20053;-49
2021/08/13 10:22:01;;;;;;;6.97;3.42;;;;;;;;;;4995691;28;20482;-49
2021/08/13 10:24:27;;;;;;;6.32;2.85;;;;;;;;;;4995736;28;20029;-54
2021/08/13 10:26:54;;;;;;;5.25;2.90;;;;;;;;;;4995725;28;20022;-51
2021/08/13 10:29:21;;;;;;;5.78;3.20;;;;;;;;;;4995399;28;20471;-52
2021/08/13 10:31:47;;;;;;;6.35;3.72;;;;;;;;;;4995211;28;20034;-54
2021/08/13 10:34:13;;;;;;;6.43;3.45;;;;;;;;;;4995102;28;20076;-51
2021/08/13 10:36:40;;;;;;;5.65;2.92;;;;;;;;;;4995129;28;20027;-52
2021/08/13 10:39:07;;;;;;;5.07;3.40;;;;;;;;;;4995307;28;20031;-49
2021/08/13 10:41:38;;;;;;;5.88;3.40;;;;;;;;;;4995149;28;20529;-52
2021/08/13 10:44:07;;;;;;;7.97;2.97;;;;;;;;;;4995251;28;20027;-57
2021/08/13 10:46:35;;;;;;;4.88;3.08;;;;;;;;;;4995127;28;20168;-52
2021/08/13 10:49:02;;;;;;;3.83;3.17;;;;;;;;;;4994617;28;20084;-54
2021/08/13 10:51:29;;;;;;;6.22;3.00;;;;;;;;;;4995145;28;20035;-56
2021/08/13 10:54:14;;;;;;;4.15;2.95;;;;;;;;;;4994763;28;20030;-58
2021/08/13 10:56:49;;;;;;;8.35;2.80;;;;;;;;;;4994079;28;20526;-60
2021/08/13 10:59:36;;;;;;;5.18;3.25;;;;;;;;;;4994008;28;20073;-57
2021/08/13 11:02:28;;;;;;;4.00;3.20;;;;;;;;;;4988038;28;20073;-57
2021/08/13 11:04:54;;;;;;;4.85;3.17;;;;;;;;;;4993079;28;20042;-57
2021/08/13 11:07:39;;;;;;;5.50;3.20;;;;;;;;;;4995419;28;20026;-58
2021/08/13 11:10:25;;;;;;;5.53;3.22;;;;;;;;;;4994408;28;20050;-57
2021/08/13 11:13:09;;;;;;;6.07;3.40;;;;;;;;;;4992274;28;20019;-57
2021/08/13 11:15:36;;;;;;;4.82;3.50;;;;;;;;;;4992708;28;20494;-58
2021/08/13 11:18:02;;;;;;;3.85;3.22;;;;;;;;;;4994725;28;20379;-58
2021/08/13 11:20:41;;;;;;;4.50;3.08;;;;;;;;;;4994711;28;20105;-57
2021/08/13 11:23:08;;;;;;;3.28;2.70;;;;;;;;;;4994447;28;20022;-56
2021/08/13 11:25:47;;;;;;;4.03;2.72;;;;;;;;;;4994181;28;20093;-57
2021/08/13 11:28:24;;;;;;;7.57;3.17;;;;;;;;;;4994083;28;20383;-53
2021/08/13 11:30:52;;;;;;;7.32;2.92;;;;;;;;;;4994096;28;20053;-57
2021/08/13 11:33:28;;;;;;;6.55;3.28;;;;;;;;;;4994403;28;20022;-50
2021/08/13 11:35:55;;;;;;;4.82;2.90;;;;;;;;;;4994352;28;20078;-49
2021/08/13 11:38:40;;;;;;;4.25;3.20;;;;;;;;;;4994283;28;20498;-61
2021/08/13 11:41:21;;;;;;;7.78;3.88;;;;;;;;;;4994450;28;20037;-56
2021/08/13 11:43:51;;;;;;;5.13;3.08;;;;;;;;;;4994138;28;20482;-55
2021/08/13 11:46:26;;;;;;;6.03;3.53;;;;;;;;;;4994416;28;20434;-55
2021/08/13 11:48:57;;;;;;;6.47;3.22;;;;;;;;;;4994144;28;20254;-56
2021/08/13 11:51:24;;;;;;;4.63;3.47;;;;;;;;;;4993983;28;20046;-56
2021/08/13 11:53:50;;;;;;;5.82;3.40;;;;;;;;;;4993679;28;20026;-52
2021/08/13 11:56:29;;;;;;;7.90;3.03;;;;;;;;;;4993128;28;20014;-53
2021/08/13 11:58:58;;;;;;;6.53;4.37;;;;;;;;;;4992680;28;20483;-51
2021/08/13 12:01:24;;;;;;;5.82;3.58;;;;;;;;;;4991039;28;20422;-51
2021/08/13 12:03:52;;;;;;;6.30;3.08;;;;;;;;;;4993451;28;20050;-50
2021/08/13 12:06:18;;;;;;;7.57;3.40;;;;;;;;;;4993715;28;20022;-51
2021/08/13 12:08:45;;;;;;;4.70;3.60;;;;;;;;;;4993140;28;20116;-48
2021/08/13 12:11:11;;;;;;;7.03;3.50;;;;;;;;;;4993422;28;20022;-51
2021/08/13 12:13:37;;;;;;;7.78;3.67;;;;;;;;;;4993428;28;20026;-50
2021/08/13 12:16:04;;;;;;;4.03;3.20;;;;;;;;;;4993680;28;20023;-52
2021/08/13 12:18:30;;;;;;;6.07;3.80;;;;;;;;;;4993657;28;20018;-52
2021/08/13 12:20:57;;;;;;;6.72;3.30;;;;;;;;;;4993680;28;20043;-52
2021/08/13 12:23:23;;;;;;;11.27;3.20;;;;;;;;;;4993724;28;20141;-50
2021/08/13 12:25:49;;;;;;;6.90;3.55;;;;;;;;;;4993822;28;20406;-52
2021/08/13 12:28:18;;;;;;;5.82;3.83;;;;;;;;;;4992697;28;20081;-48
2021/08/13 12:30:46;;;;;;;11.15;9.50;;;;;;;;;;4992283;28;20502;-51
2021/08/13 12:33:16;;;;;;;13.70;9.63;;;;;;;;;;4992297;28;20041;-50
2021/08/13 12:35:43;;;;;;;12.98;7.75;;;;;;;;;;4992482;28;20378;-50
2021/08/13 12:38:10;;;;;;;20.00;14.18;;;;;;;;;;4992227;28;20118;-52
2021/08/13 12:40:51;;;;;;;14.35;8.88;;;;;;;;;;4993473;28;20074;-53
2021/08/13 12:43:18;;;;;;;4.70;3.45;;;;;;;;;;4993648;28;20030;-47
2021/08/13 12:45:44;;;;;;;5.75;3.58;;;;;;;;;;4993443;28;20031;-51
2021/08/13 12:48:11;;;;;;;6.63;3.90;;;;;;;;;;4993456;28;20023;-51
2021/08/13 12:50:37;;;;;;;5.97;3.50;;;;;;;;;;4993759;28;20026;-51
2021/08/13 12:53:05;;;;;;;5.95;3.05;;;;;;;;;;4993438;28;20027;-46
2021/08/13 12:55:40;;;;;;;5.28;3.00;;;;;;;;;;4993817;28;20094;-50
2021/08/13 12:58:06;;;;;;;4.07;3.08;;;;;;;;;;4993387;28;20031;-50
2021/08/13 13:00:33;;;;;;;5.82;3.15;;;;;;;;;;4993231;28;20042;-51
2021/08/13 13:03:13;;;;;;;6.82;3.40;;;;;;;;;;4993317;28;20042;-48
2021/08/13 13:05:57;;;;;;;5.50;3.30;;;;;;;;;;4993388;28;20391;-49
2021/08/13 13:08:23;;;;;;;19.50;12.98;;;;;;;;;;4996864;28;20037;-48
2021/08/13 13:10:49;;;;;;;4.47;3.60;;;;;;;;;;4997114;28;20109;-51
2021/08/13 13:13:16;;;;;;;6.07;3.05;;;;;;;;;;4996947;28;20022;-52
2021/08/13 13:15:42;;;;;;;4.57;3.15;;;;;;;;;;4996884;28;20475;-49
2021/08/13 13:18:08;;;;;;;6.43;3.53;;;;;;;;;;4996920;28;20026;-51
2021/08/13 13:20:36;;;;;;;7.88;3.60;;;;;;;;;;4996593;28;20035;-48
2021/08/13 13:23:05;;;;;;;6.05;3.60;;;;;;;;;;4996887;28;20035;-48
2021/08/13 13:25:50;;;;;;;4.65;3.22;;;;;;;;;;4996792;28;20022;-47
2021/08/13 13:28:31;;;;;;;5.60;3.15;;;;;;;;;;4996731;28;20037;-48
2021/08/13 13:31:09;;;;;;;7.35;3.83;;;;;;;;;;4996616;28;20026;-48
2021/08/13 13:33:35;;;;;;;7.53;3.67;;;;;;;;;;4996661;28;20505;-48
2021/08/13 13:36:02;;;;;;;8.48;6.43;;;;;;;;;;4996656;28;20031;-48
2021/08/13 13:38:29;;;;;;;6.22;3.05;;;;;;;;;;4996428;28;20030;-49
2021/08/13 13:40:55;;;;;;;5.43;4.38;;;;;;;;;;4996483;28;20058;-50
2021/08/13 13:43:22;;;;;;;5.72;3.53;;;;;;;;;;4996615;28;20458;-48
2021/08/13 13:45:50;;;;;;;5.75;4.05;;;;;;;;;;4996419;28;20026;-49
2021/08/13 13:48:17;;;;;;;7.28;3.70;;;;;;;;;;4996332;28;20070;-49
2021/08/13 13:50:43;;;;;;;5.32;3.33;;;;;;;;;;4996387;28;20081;-48
2021/08/13 13:53:09;;;;;;;8.38;3.83;;;;;;;;;;4996292;28;20065;-48
2021/08/13 13:55:35;;;;;;;5.45;3.58;;;;;;;;;;4996554;28;20566;-50
2021/08/13 13:58:01;;;;;;;7.25;3.67;;;;;;;;;;4996292;28;20072;-49
2021/08/13 14:00:30;;;;;;;5.60;3.45;;;;;;;;;;4996122;28;20394;-52
2021/08/13 14:02:56;;;;;;;6.80;3.67;;;;;;;;;;4995646;28;20062;-49
2021/08/13 14:05:22;;;;;;;12.68;8.07;;;;;;;;;;4996090;28;20525;-51
2021/08/13 14:07:49;;;;;;;11.63;9.73;;;;;;;;;;4995967;28;20478;-48
2021/08/13 14:10:17;;;;;;;6.85;3.72;;;;;;;;;;4995732;28;20050;-49
2021/08/13 14:12:44;;;;;;;7.18;3.63;;;;;;;;;;4996212;28;20109;-52
2021/08/13 14:15:12;;;;;;;6.95;3.60;;;;;;;;;;4996033;28;20026;-47
2021/08/13 14:17:38;;;;;;;5.63;3.30;;;;;;;;;;4995727;28;20044;-52
2021/08/13 14:20:05;;;;;;;5.97;3.78;;;;;;;;;;4995550;28;20378;-52
2021/08/13 14:22:32;;;;;;;7.47;4.18;;;;;;;;;;4995629;28;20038;-51
2021/08/13 14:24:58;;;;;;;7.15;3.70;;;;;;;;;;4995849;28;20426;-51
2021/08/13 14:27:24;;;;;;;4.05;3.65;;;;;;;;;;4995947;28;20026;-52
2021/08/13 14:29:50;;;;;;;5.35;3.85;;;;;;;;;;4995729;28;20022;-52
2021/08/13 14:32:16;;;;;;;5.65;3.53;;;;;;;;;;4995644;28;20026;-50
2021/08/13 14:34:42;;;;;;;6.15;3.50;;;;;;;;;;4995737;28;20085;-51
2021/08/13 14:37:08;;;;;;;6.53;3.50;;;;;;;;;;4995538;28;20031;-52
2021/08/13 14:39:34;;;;;;;6.47;3.58;;;;;;;;;;4995720;28;20038;-53
2021/08/13 14:42:03;;;;;;;5.18;3.05;;;;;;;;;;4995553;28;20097;-52
2021/08/13 14:44:29;;;;;;;5.32;3.42;;;;;;;;;;4995430;28;20205;-51